Time;durP1;ratioP1;P1;durP2;ratioP2;P2;SDS_P1;SDS_P2;PMS_P1;PMS_P2;Temp;Humidity;BMP_temperature;BMP_pressure;BME280_temperature;BME280_humidity;BME280_pressure;Samples;Min_cycle;Max_cycle;Signal;HPM_P1;HPM_P2
2022/03/02 00:01:00;;;;;;;14.30;6.00;;;;;;;10.02;95.89;101963.41;7388571;19;20023;-80
2022/03/02 00:03:29;;;;;;;12.20;5.97;;;;;;;10.04;96.20;101951.84;7387223;19;20041;-81
2022/03/02 00:05:59;;;;;;;11.75;5.40;;;;;;;10.09;96.40;101956.72;7384603;19;20014;-81
2022/03/02 00:08:30;;;;;;;51.78;10.25;;;;;;;10.07;96.42;101950.75;7386742;19;20090;-81
2022/03/02 00:10:57;;;;;;;18.13;7.63;;;;;;;10.04;96.45;101943.97;7383122;19;20014;-81
2022/03/02 00:13:30;;;;;;;15.15;7.03;;;;;;;10.09;96.27;101943.59;7380536;19;20332;-81
2022/03/02 00:16:01;;;;;;;19.02;7.85;;;;;;;10.12;95.88;101941.53;7375404;19;20635;-81
2022/03/02 00:18:28;;;;;;;13.27;7.25;;;;;;;10.13;95.87;101939.75;7385005;19;20011;-81
2022/03/02 00:20:56;;;;;;;19.63;8.88;;;;;;;10.13;96.40;101939.75;7388503;19;20006;-81
2022/03/02 00:23:23;;;;;;;145.38;13.82;;;;;;;10.12;96.34;101938.06;7387833;19;20010;-82
2022/03/02 00:25:53;;;;;;;18.63;9.27;;;;;;;10.14;96.46;101934.38;7387993;19;20010;-81
2022/03/02 00:28:19;;;;;;;29.05;9.93;;;;;;;10.14;96.29;101937.00;7387208;19;20411;-81
2022/03/02 00:30:47;;;;;;;73.25;14.55;;;;;;;10.16;96.71;101934.25;7388211;19;20018;-78
2022/03/02 00:33:15;;;;;;;84.03;13.50;;;;;;;10.17;97.12;101942.03;7383727;19;20015;-80
2022/03/02 00:35:42;;;;;;;22.00;11.48;;;;;;;10.19;97.27;101931.41;7382834;19;20010;-81
2022/03/02 00:38:10;;;;;;;24.75;11.55;;;;;;;10.20;97.10;101931.28;7382281;19;20332;-80
2022/03/02 00:40:40;;;;;;;33.22;12.15;;;;;;;10.19;96.82;101931.41;7383300;19;20011;-80
2022/03/02 00:43:10;;;;;;;24.50;13.25;;;;;;;10.18;96.55;101927.09;7386415;19;20106;-81
2022/03/02 00:45:37;;;;;;;24.70;13.90;;;;;;;10.17;96.27;101928.91;7386783;19;20038;-82
2022/03/02 00:48:06;;;;;;;61.03;15.52;;;;;;;10.20;96.36;101922.56;7389594;19;20014;-80
2022/03/02 00:50:34;;;;;;;28.38;14.20;;;;;;;10.16;95.75;101915.84;7385402;19;20015;-80
2022/03/02 00:53:02;;;;;;;159.48;20.42;;;;;;;10.17;95.59;101921.00;7385467;19;20010;-81
2022/03/02 00:55:29;;;;;;;68.03;18.13;;;;;;;10.18;95.65;101914.78;7385709;19;20011;-80
2022/03/02 00:57:56;;;;;;;30.40;15.82;;;;;;;10.22;94.81;101920.63;7385001;19;20024;-81
2022/03/02 01:00:23;;;;;;;53.80;18.60;;;;;;;10.18;95.56;101919.22;7384368;19;20015;-80
2022/03/02 01:02:50;;;;;;;33.55;16.52;;;;;;;10.17;95.30;101913.13;7384318;19;20175;-82
2022/03/02 01:05:17;;;;;;;33.80;16.60;;;;;;;10.15;95.35;101915.00;7384063;19;20554;-81
2022/03/02 01:07:45;;;;;;;102.55;23.00;;;;;;;10.16;95.73;101916.69;7382864;19;20480;-81
2022/03/02 01:10:12;;;;;;;40.65;19.80;;;;;;;10.15;95.92;101920.28;7383788;19;20007;-81
2022/03/02 01:12:39;;;;;;;57.30;19.70;;;;;;;10.17;95.68;101909.66;7383991;19;20462;-81
2022/03/02 01:15:07;;;;;;;42.50;20.30;;;;;;;10.15;95.43;101916.81;7386468;19;20019;-80
2022/03/02 01:17:34;;;;;;;41.63;19.67;;;;;;;10.10;94.85;101911.09;7385505;19;20018;-81
2022/03/02 01:20:03;;;;;;;42.35;21.17;;;;;;;10.04;95.07;101907.16;7387314;19;20014;-81
2022/03/02 01:22:30;;;;;;;39.63;19.75;;;;;;;10.05;95.00;101918.50;7383649;19;20011;-81
2022/03/02 01:24:57;;;;;;;46.33;21.23;;;;;;;9.99;94.42;101911.94;7384084;19;20061;-80
2022/03/02 01:27:24;;;;;;;78.30;23.17;;;;;;;10.01;94.24;101911.78;7382872;19;20015;-79
2022/03/02 01:29:52;;;;;;;42.97;20.20;;;;;;;9.99;94.38;101900.59;7383901;19;20481;-81
2022/03/02 01:32:20;;;;;;;96.63;23.88;;;;;;;9.98;94.96;101902.38;7380822;19;20003;-81
2022/03/02 01:34:47;;;;;;;45.35;21.67;;;;;;;9.99;94.74;101908.47;7381962;19;20098;-80
2022/03/02 01:37:15;;;;;;;46.78;22.15;;;;;;;9.91;94.24;101900.34;7383342;19;20467;-80
2022/03/02 01:39:43;;;;;;;71.43;22.70;;;;;;;9.93;94.47;101903.69;7386977;19;20337;-81
2022/03/02 01:42:10;;;;;;;46.25;21.85;;;;;;;9.93;94.62;101901.06;7383683;19;20022;-82
2022/03/02 01:44:37;;;;;;;48.88;21.88;;;;;;;9.92;94.82;101892.34;7385919;19;20022;-80
2022/03/02 01:47:06;;;;;;;48.28;22.00;;;;;;;9.90;95.24;101888.19;7385674;19;20019;-82
2022/03/02 01:49:34;;;;;;;50.13;21.60;;;;;;;9.86;94.69;101888.41;7386554;19;20021;-80
2022/03/02 01:52:02;;;;;;;50.28;21.60;;;;;;;9.91;94.72;101900.34;7386769;19;20026;-81
2022/03/02 01:54:29;;;;;;;46.33;21.17;;;;;;;9.88;94.85;101891.75;7388787;19;20119;-81
2022/03/02 01:56:56;;;;;;;54.20;23.15;;;;;;;9.87;94.61;101891.88;7389233;19;20021;-80
2022/03/02 01:59:25;;;;;;;45.28;21.98;;;;;;;9.80;94.52;101888.88;7392432;19;20010;-80
2022/03/02 02:01:52;;;;;;;46.42;22.27;;;;;;;9.81;94.51;101890.56;7388799;19;20383;-81
2022/03/02 02:04:20;;;;;;;62.40;21.75;;;;;;;9.82;93.96;101886.13;7392194;19;20033;-81
2022/03/02 02:06:47;;;;;;;48.95;21.98;;;;;;;9.80;93.13;101880.19;7390201;19;20033;-80
2022/03/02 02:09:14;;;;;;;48.53;21.85;;;;;;;9.76;93.40;101879.56;7392662;19;20011;-80
2022/03/02 02:11:41;;;;;;;49.55;21.98;;;;;;;9.75;92.90;101877.09;7389259;19;20538;-82
2022/03/02 02:14:08;;;;;;;45.13;19.48;;;;;;;9.71;93.00;101873.84;7389872;19;20019;-81
2022/03/02 02:16:35;;;;;;;59.67;22.15;;;;;;;9.71;92.73;101870.38;7394602;19;20056;-81
2022/03/02 02:19:02;;;;;;;47.47;19.33;;;;;;;9.67;93.26;101867.16;7389256;19;20042;-81
2022/03/02 02:21:29;;;;;;;55.40;21.80;;;;;;;9.69;93.09;101877.56;7391038;19;20030;-81
2022/03/02 02:23:56;;;;;;;48.38;21.08;;;;;;;9.65;93.06;101873.50;7389991;19;20014;-81
2022/03/02 02:26:25;;;;;;;41.42;19.30;;;;;;;9.65;93.14;101866.44;7393388;19;20034;-81
2022/03/02 02:28:53;;;;;;;48.20;21.48;;;;;;;9.63;92.95;101860.50;7393903;19;20082;-80
2022/03/02 02:31:20;;;;;;;49.10;19.00;;;;;;;9.59;92.53;101861.69;7389453;19;20030;-80
2022/03/02 02:33:48;;;;;;;57.75;20.67;;;;;;;9.56;92.73;101863.72;7390924;19;20010;-82
2022/03/02 02:36:16;;;;;;;40.05;17.55;;;;;;;9.51;93.12;101864.06;7389132;19;20033;-80
2022/03/02 02:38:43;;;;;;;43.63;19.08;;;;;;;9.47;92.46;101870.53;7392275;19;20524;-83
2022/03/02 02:41:10;;;;;;;61.60;19.85;;;;;;;9.48;92.83;101864.31;7390637;19;20076;-81
2022/03/02 02:43:42;;;;;;;41.45;17.67;;;;;;;9.50;92.94;101858.97;7393047;19;20007;-81
2022/03/02 02:46:11;;;;;;;76.03;22.25;;;;;;;9.54;93.37;101863.00;7391146;19;20321;-81
2022/03/02 02:48:39;;;;;;;43.03;18.00;;;;;;;9.44;92.81;101852.38;7388278;19;20030;-81
2022/03/02 02:51:12;;;;;;;47.83;18.58;;;;;;;9.45;92.80;101852.25;7389086;19;20013;-81
2022/03/02 02:53:40;;;;;;;40.13;17.65;;;;;;;9.47;93.33;101843.41;7387626;19;20349;-80
2022/03/02 02:56:13;;;;;;;39.85;18.00;;;;;;;9.51;92.33;101847.47;7390580;19;20086;-80
2022/03/02 02:58:41;;;;;;;93.75;19.67;;;;;;;9.46;92.16;101845.22;7388864;19;20003;-81
2022/03/02 03:01:08;;;;;;;42.63;18.13;;;;;;;9.48;92.52;101845.09;7387506;19;20006;-80
2022/03/02 03:03:35;;;;;;;58.83;19.95;;;;;;;9.46;92.44;101850.47;7391620;19;20017;-80
2022/03/02 03:06:05;;;;;;;44.25;19.58;;;;;;;9.42;92.62;101843.78;7389040;19;20098;-80
2022/03/02 03:08:32;;;;;;;46.10;18.52;;;;;;;9.47;92.49;101838.16;7390763;19;20014;-80
2022/03/02 03:10:59;;;;;;;43.42;18.35;;;;;;;9.49;93.10;101839.72;7387535;19;20031;-79
2022/03/02 03:13:26;;;;;;;41.50;18.15;;;;;;;9.48;92.95;101837.22;7386570;19;20033;-80
2022/03/02 03:15:54;;;;;;;46.30;19.73;;;;;;;9.47;93.29;101827.66;7388136;19;20033;-80
2022/03/02 03:18:21;;;;;;;46.28;18.15;;;;;;;9.48;92.71;101834.59;7387012;19;20022;-80
2022/03/02 03:20:48;;;;;;;47.92;19.25;;;;;;;9.41;92.70;101832.44;7387703;19;20360;-80
2022/03/02 03:23:16;;;;;;;55.20;20.58;;;;;;;9.36;92.69;101825.88;7389809;19;20017;-81
2022/03/02 03:25:43;;;;;;;44.70;19.42;;;;;;;9.36;92.77;101829.34;7388389;19;20019;-80
2022/03/02 03:28:13;;;;;;;56.85;20.38;;;;;;;9.37;93.01;101827.56;7389833;19;20070;-81
2022/03/02 03:30:40;;;;;;;43.97;19.52;;;;;;;9.40;93.19;101835.16;7388747;19;20013;-81
2022/03/02 03:33:07;;;;;;;42.47;19.30;;;;;;;9.38;93.77;101829.22;7387639;19;20034;-80
2022/03/02 03:35:34;;;;;;;43.58;19.88;;;;;;;9.37;93.63;101822.28;7386453;19;20006;-80
2022/03/02 03:38:03;;;;;;;45.35;19.38;;;;;;;9.37;93.92;101815.25;7387155;19;20019;-81
2022/03/02 03:40:30;;;;;;;50.88;19.05;;;;;;;9.38;94.00;101816.94;7386578;19;20017;-80
2022/03/02 03:42:58;;;;;;;37.53;18.30;;;;;;;9.36;93.12;101821.47;7387688;19;20011;-80
2022/03/02 03:45:25;;;;;;;46.13;18.80;;;;;;;9.31;92.72;101820.16;7387315;19;20014;-81
2022/03/02 03:47:54;;;;;;;39.47;19.30;;;;;;;9.31;93.62;101812.25;7387143;19;20029;-81
2022/03/02 03:50:22;;;;;;;44.25;18.40;;;;;;;9.28;93.23;101821.25;7389349;19;20615;-80
2022/03/02 03:52:49;;;;;;;45.85;19.20;;;;;;;9.32;93.32;101814.78;7386387;19;20379;-80
2022/03/02 03:55:17;;;;;;;42.20;19.00;;;;;;;9.31;93.21;101826.22;7387798;19;20380;-80
2022/03/02 03:57:45;;;;;;;43.22;20.02;;;;;;;9.27;93.36;101821.34;7391965;19;20090;-81
2022/03/02 04:00:17;;;;;;;44.17;18.95;;;;;;;9.29;93.87;101820.28;7386606;19;20016;-81
2022/03/02 04:02:45;;;;;;;43.30;17.75;;;;;;;9.35;93.39;101816.31;7388816;19;20007;-81
2022/03/02 04:05:13;;;;;;;41.60;17.80;;;;;;;9.40;93.71;101814.16;7387757;19;20019;-81
2022/03/02 04:07:44;;;;;;;42.75;19.10;;;;;;;9.41;93.58;101814.06;7388337;19;20031;-80
2022/03/02 04:10:13;;;;;;;45.15;18.58;;;;;;;9.37;93.83;101803.91;7386730;19;20010;-81
2022/03/02 04:12:41;;;;;;;43.42;17.85;;;;;;;9.37;93.91;101810.00;7383165;19;20037;-81
2022/03/02 04:15:09;;;;;;;51.67;20.27;;;;;;;9.40;93.91;101803.66;7384525;19;20017;-80
2022/03/02 04:17:36;;;;;;;38.90;17.23;;;;;;;9.39;93.90;101812.53;7382268;19;20360;-80
2022/03/02 04:20:06;;;;;;;74.68;19.73;;;;;;;9.33;92.84;101800.69;7383893;19;20352;-81
2022/03/02 04:22:33;;;;;;;68.38;21.42;;;;;;;9.32;93.11;101801.66;7385840;19;20392;-79
2022/03/02 04:25:01;;;;;;;41.17;18.10;;;;;;;9.31;93.40;101797.34;7384704;19;20037;-80
2022/03/02 04:27:27;;;;;;;58.28;18.73;;;;;;;9.32;93.86;101798.19;7385443;19;20010;-80
2022/03/02 04:29:54;;;;;;;43.15;19.40;;;;;;;9.31;93.91;101792.09;7385317;19;20102;-80
2022/03/02 04:32:22;;;;;;;66.70;19.88;;;;;;;9.31;93.86;101788.63;7382071;19;20086;-80
2022/03/02 04:34:49;;;;;;;44.78;19.17;;;;;;;9.34;94.41;101788.41;7384711;19;20034;-79
2022/03/02 04:37:16;;;;;;;60.53;20.85;;;;;;;9.36;94.92;101789.94;7382727;19;20334;-80
2022/03/02 04:39:44;;;;;;;48.70;20.42;;;;;;;9.31;94.51;101783.38;7386737;19;20096;-81
2022/03/02 04:42:11;;;;;;;42.80;18.55;;;;;;;9.29;94.27;101778.28;7382767;19;20038;-80
2022/03/02 04:44:38;;;;;;;45.80;19.45;;;;;;;9.26;94.14;101770.63;7383478;19;20087;-80
2022/03/02 04:47:05;;;;;;;43.90;19.17;;;;;;;9.26;94.74;101770.63;7385412;19;20053;-80
2022/03/02 04:49:32;;;;;;;42.58;18.73;;;;;;;9.28;94.80;101779.22;7384920;19;20021;-80
2022/03/02 04:51:59;;;;;;;39.65;18.58;;;;;;;9.25;94.33;101771.56;7382949;19;20109;-80
2022/03/02 04:57:05;;;;;;;76.97;21.92;;;;;;;9.22;94.47;101770.97;7385788;19;20022;-80
2022/03/02 04:59:33;;;;;;;45.38;18.27;;;;;;;9.25;94.29;101762.84;7388864;19;20425;-80
2022/03/02 05:02:01;;;;;;;47.95;20.48;;;;;;;9.26;94.57;101765.38;7385544;19;20076;-81
2022/03/02 05:04:28;;;;;;;54.45;21.00;;;;;;;9.20;94.52;101771.09;7383815;19;20017;-80
2022/03/02 05:06:55;;;;;;;48.17;19.65;;;;;;;9.21;94.55;101761.44;7385033;19;20463;-80
2022/03/02 05:09:23;;;;;;;44.95;20.67;;;;;;;9.18;94.59;101767.78;7388259;19;20017;-80
2022/03/02 05:11:50;;;;;;;43.17;18.77;;;;;;;9.20;94.85;101762.38;7383440;19;20041;-81
2022/03/02 05:14:17;;;;;;;45.25;19.98;;;;;;;9.22;94.54;101765.72;7388275;19;20419;-81
2022/03/02 05:16:44;;;;;;;82.50;21.85;;;;;;;9.20;94.93;101765.84;7381702;19;20037;-81
2022/03/02 05:19:11;;;;;;;48.08;20.42;;;;;;;9.20;94.54;101768.47;7382910;19;20169;-81
2022/03/02 05:21:38;;;;;;;43.78;18.80;;;;;;;9.19;94.40;101765.97;7386331;19;20074;-80
2022/03/02 05:24:06;;;;;;;45.97;20.38;;;;;;;9.18;94.66;101767.78;7383079;19;20016;-81
2022/03/02 05:26:33;;;;;;;51.25;20.85;;;;;;;9.20;94.91;101770.25;7380941;19;20006;-81
2022/03/02 05:29:01;;;;;;;40.20;18.02;;;;;;;9.26;94.97;101764.53;7387007;19;20003;-80
2022/03/02 05:31:28;;;;;;;60.70;21.35;;;;;;;9.29;95.20;101759.06;7381982;19;20030;-81
2022/03/02 05:33:57;;;;;;;44.97;19.20;;;;;;;9.29;95.04;101757.25;7384770;19;20010;-80
2022/03/02 05:36:25;;;;;;;66.72;21.33;;;;;;;9.31;94.92;101763.22;7385613;19;20017;-81
2022/03/02 05:38:52;;;;;;;44.55;19.83;;;;;;;9.26;95.02;101754.84;7385195;19;20022;-81
2022/03/02 05:41:20;;;;;;;37.85;18.33;;;;;;;9.26;94.40;101754.03;7382499;19;20090;-80
2022/03/02 05:43:48;;;;;;;105.90;21.35;;;;;;;9.25;94.61;101753.19;7386019;19;20042;-81
2022/03/02 05:46:15;;;;;;;44.20;18.23;;;;;;;9.22;94.67;101753.44;7381474;19;20041;-80
2022/03/02 05:48:43;;;;;;;48.40;20.58;;;;;;;9.23;94.58;101752.50;7383453;19;20038;-80
2022/03/02 05:51:10;;;;;;;45.40;18.55;;;;;;;9.25;94.71;101749.72;7382137;19;20119;-80
2022/03/02 05:53:37;;;;;;;337.92;30.15;;;;;;;9.27;94.43;101745.19;7383942;19;20450;-80
2022/03/02 05:56:04;;;;;;;54.70;19.48;;;;;;;9.26;94.96;101748.78;7383471;19;20479;-81
2022/03/02 05:58:31;;;;;;;44.03;18.17;;;;;;;9.24;94.64;101750.69;7384050;19;20011;-80
2022/03/02 06:00:59;;;;;;;47.25;19.60;;;;;;;9.24;94.64;101741.03;7382956;19;20193;-81
2022/03/02 06:03:28;;;;;;;85.03;24.15;;;;;;;9.26;95.09;101746.16;7381853;19;20122;-81
2022/03/02 06:05:56;;;;;;;43.78;18.45;;;;;;;9.25;95.08;101747.94;7382658;19;20018;-80
2022/03/02 06:08:24;;;;;;;45.53;20.33;;;;;;;9.24;94.60;101758.56;7384357;19;20006;-81
2022/03/02 06:10:51;;;;;;;45.28;18.70;;;;;;;9.23;93.87;101751.66;7381147;19;20022;-80
2022/03/02 06:13:18;;;;;;;74.82;18.27;;;;;;;9.17;93.59;101755.59;7383147;19;20375;-79
2022/03/02 06:15:46;;;;;;;39.75;16.35;;;;;;;9.21;94.10;101751.75;7380610;19;20210;-80
2022/03/02 06:18:13;;;;;;;40.22;16.83;;;;;;;9.21;93.49;101754.38;7382829;19;20049;-80
2022/03/02 06:20:42;;;;;;;42.42;17.40;;;;;;;9.19;93.76;101758.09;7382982;19;20447;-80
2022/03/02 06:23:10;;;;;;;38.28;15.75;;;;;;;9.19;93.93;101756.31;7382770;19;20021;-82
2022/03/02 06:25:38;;;;;;;36.42;15.45;;;;;;;9.18;93.38;101754.66;7384028;19;20028;-81
2022/03/02 06:28:06;;;;;;;36.53;15.38;;;;;;;9.24;93.68;101756.78;7385657;19;20106;-81
2022/03/02 06:30:33;;;;;;;43.05;15.65;;;;;;;9.23;93.54;101756.91;7383623;19;20015;-81
2022/03/02 06:33:00;;;;;;;64.90;16.95;;;;;;;9.29;94.76;101761.69;7384014;19;20032;-81
2022/03/02 06:35:27;;;;;;;41.83;16.73;;;;;;;9.22;94.13;101760.47;7386219;19;20014;-81
2022/03/02 06:37:54;;;;;;;52.35;17.45;;;;;;;9.16;93.98;101753.91;7391653;19;20010;-80
2022/03/02 06:40:22;;;;;;;33.53;14.93;;;;;;;9.19;94.33;101760.72;7388017;19;20011;-81
2022/03/02 06:42:59;;;;;;;54.30;17.10;;;;;;;9.11;93.80;101763.94;7391263;19;20513;-80
2022/03/02 06:45:37;;;;;;;37.30;15.48;;;;;;;9.10;93.69;101759.63;7389427;19;20011;-80
2022/03/02 06:48:11;;;;;;;37.15;15.52;;;;;;;9.10;93.40;101758.81;7389761;19;20474;-81
2022/03/02 06:50:43;;;;;;;38.95;16.20;;;;;;;9.11;93.55;101761.31;7391066;19;20015;-81
2022/03/02 06:53:13;;;;;;;45.72;16.05;;;;;;;9.12;93.81;101756.91;7389300;19;20609;-81
2022/03/02 06:55:44;;;;;;;29.52;12.95;;;;;;;9.10;93.39;101764.06;7386179;19;20133;-80
2022/03/02 06:58:14;;;;;;;34.83;12.75;;;;;;;9.11;92.55;101765.72;7389713;19;20011;-80
2022/03/02 07:00:52;;;;;;;28.15;12.43;;;;;;;9.09;92.46;101767.66;7388857;19;20070;-81
2022/03/02 07:03:27;;;;;;;33.58;13.32;;;;;;;9.15;92.13;101778.50;7389897;19;20588;-81
2022/03/02 07:05:55;;;;;;;32.95;13.57;;;;;;;9.12;92.38;101762.16;7392014;19;20022;-82
2022/03/02 07:08:24;;;;;;;31.98;15.30;;;;;;;9.12;92.71;101772.66;7391610;19;20003;-80
2022/03/02 07:10:51;;;;;;;78.43;17.63;;;;;;;9.12;92.40;101775.28;7390310;19;20011;-81
2022/03/02 07:13:21;;;;;;;37.35;16.92;;;;;;;9.17;92.64;101775.75;7388832;19;20477;-80
2022/03/02 07:15:49;;;;;;;34.33;14.20;;;;;;;9.22;93.36;101777.06;7383595;19;20047;-79
2022/03/02 07:18:17;;;;;;;34.45;15.88;;;;;;;9.22;92.82;101773.59;7388564;19;20026;-79
2022/03/02 07:20:47;;;;;;;96.50;20.15;;;;;;;9.22;92.97;101777.06;7388710;19;20015;-84
2022/03/02 07:23:16;;;;;;;38.95;17.15;;;;;;;9.22;93.09;101782.31;7392286;19;20015;-80
2022/03/02 07:25:44;;;;;;;41.20;16.67;;;;;;;9.25;93.31;101779.44;7387420;19;20016;-83
2022/03/02 07:28:15;;;;;;;41.10;16.70;;;;;;;9.23;93.07;101773.50;7355730;19;20025;-80
2022/03/02 07:30:45;;;;;;;43.58;18.98;;;;;;;9.31;93.16;101778.13;7380767;19;20007;-81
2022/03/02 07:33:17;;;;;;;41.75;18.98;;;;;;;9.29;93.23;101775.66;7387860;19;20527;-81
2022/03/02 07:35:54;;;;;;;46.17;20.95;;;;;;;9.30;92.95;101779.06;7382836;19;20014;-79
2022/03/02 07:38:22;;;;;;;39.80;19.05;;;;;;;9.33;92.66;101777.06;7382253;19;20050;-81
2022/03/02 07:40:49;;;;;;;52.40;22.77;;;;;;;9.30;93.32;101774.66;7385301;19;20074;-81
2022/03/02 07:43:17;;;;;;;48.00;21.40;;;;;;;9.32;93.40;101779.81;7390292;19;20011;-81
2022/03/02 07:45:44;;;;;;;40.25;18.17;;;;;;;9.32;93.33;101779.81;7390632;19;20014;-81
2022/03/02 07:48:12;;;;;;;81.75;21.63;;;;;;;9.35;93.53;101780.38;7388674;19;20055;-82
2022/03/02 07:50:39;;;;;;;43.20;20.63;;;;;;;9.33;93.18;101770.97;7386636;19;20021;-82
2022/03/02 07:53:16;;;;;;;39.25;17.70;;;;;;;9.42;93.45;101771.06;7392339;19;20426;-82
2022/03/02 07:55:44;;;;;;;40.03;18.98;;;;;;;9.47;94.47;101775.13;7387824;19;20014;-81
2022/03/02 07:58:12;;;;;;;42.70;20.55;;;;;;;9.48;92.96;101775.00;7391905;19;20038;-84
2022/03/02 08:00:39;;;;;;;58.05;20.25;;;;;;;9.50;92.82;101780.97;7391541;19;20326;-83
2022/03/02 08:03:09;;;;;;;42.92;18.20;;;;;;;9.48;92.76;101774.16;7391518;19;20006;-83
2022/03/02 08:05:38;;;;;;;41.60;16.77;;;;;;;9.44;92.31;101771.81;7390583;19;20037;-83
2022/03/02 08:08:11;;;;;;;65.32;19.55;;;;;;;9.39;91.28;101779.22;7391435;19;20514;-83
2022/03/02 08:10:37;;;;;;;49.17;16.75;;;;;;;9.39;91.21;101783.63;7391085;19;20089;-82
2022/03/02 08:13:04;;;;;;;40.20;15.80;;;;;;;9.32;90.84;101780.66;7394433;19;20014;-82
2022/03/02 08:15:33;;;;;;;78.38;18.98;;;;;;;9.36;91.30;101778.59;7386247;19;20014;-83
2022/03/02 08:18:01;;;;;;;35.72;16.38;;;;;;;9.37;91.97;101773.22;7390012;19;20414;-84
2022/03/02 08:20:50;;;;;;;36.03;15.52;;;;;;;9.34;91.35;101778.75;7391439;19;20018;-83
2022/03/02 08:23:19;;;;;;;37.83;16.38;;;;;;;9.39;91.04;101778.38;7392156;19;20013;-84
2022/03/02 08:25:52;;;;;;;71.70;29.42;;;;;;;9.45;90.91;101769.97;7388016;19;20536;-85
2022/03/02 08:28:21;;;;;;;;;;;;;;;9.46;90.56;101774.28;7394203;19;20026;-83
2022/03/02 08:30:50;;;;;;;33.38;14.85;;;;;;;9.43;90.88;101766.66;7386878;19;20071;-83
2022/03/02 08:33:25;;;;;;;36.25;15.82;;;;;;;9.47;90.89;101775.13;7389565;19;20030;-82
2022/03/02 08:35:53;;;;;;;29.55;13.65;;;;;;;9.44;90.06;101773.59;7387381;19;20511;-83
2022/03/02 08:38:25;;;;;;;30.13;14.52;;;;;;;9.42;89.41;101764.97;7391888;19;20235;-84
2022/03/02 08:40:55;;;;;;;34.67;14.57;;;;;;;9.41;88.24;101773.81;7387704;19;20007;-82
2022/03/02 08:43:22;;;;;;;35.53;14.85;;;;;;;9.38;89.17;101774.06;7388016;19;20014;-83
2022/03/02 08:46:08;;;;;;;29.73;13.07;;;;;;;9.38;88.56;101777.53;7386997;19;20020;-82
2022/03/02 08:48:35;;;;;;;;;;;;;;;9.38;87.62;101774.91;7389061;19;20067;-81
2022/03/02 08:51:04;;;;;;;53.47;15.60;;;;;;;9.34;87.35;101768.25;7387435;19;19925;-82
2022/03/02 08:53:40;;;;;;;27.58;13.00;;;;;;;9.35;88.79;101769.03;7387492;19;20010;-82
2022/03/02 08:56:07;;;;;;;35.38;14.95;;;;;;;9.36;89.45;101773.34;7390170;19;20411;-81
2022/03/02 08:58:37;;;;;;;32.95;14.07;;;;;;;9.35;89.63;101775.13;7387025;19;20010;-82
2022/03/02 09:01:04;;;;;;;25.52;12.55;;;;;;;9.36;88.34;101782.06;7385157;19;20103;-82
2022/03/02 09:03:34;;;;;;;33.92;12.20;;;;;;;9.34;88.10;101775.28;7386292;19;20028;-83
2022/03/02 09:06:03;;;;;;;23.65;11.05;;;;;;;9.29;87.21;101772.19;7384707;19;20027;-81
2022/03/02 09:08:36;;;;;;;23.30;9.60;;;;;;;9.25;86.18;101776.81;7387346;19;20010;-82
2022/03/02 09:11:07;;;;;;;22.77;11.13;;;;;;;9.25;86.17;101779.44;7383184;19;20049;-82
2022/03/02 09:13:37;;;;;;;23.15;10.40;;;;;;;9.23;86.48;101778.75;7385223;19;20006;-82
2022/03/02 09:16:06;;;;;;;35.97;13.02;;;;;;;9.26;86.32;101780.28;7385532;19;20055;-83
2022/03/02 09:18:34;;;;;;;28.05;12.90;;;;;;;9.21;86.22;101770.13;7386660;19;20058;-83
2022/03/02 09:21:04;;;;;;;42.20;12.70;;;;;;;9.28;86.90;101775.75;7384461;19;20085;-81
2022/03/02 09:23:34;;;;;;;25.48;11.40;;;;;;;9.26;86.50;101773.25;7388175;19;20010;-82
2022/03/02 09:26:12;;;;;;;22.70;9.77;;;;;;;9.28;85.83;101776.59;7384529;19;20010;-82
2022/03/02 09:28:52;;;;;;;21.48;9.55;;;;;;;9.26;86.46;101780.28;7389165;19;20454;-82
2022/03/02 09:31:22;;;;;;;21.48;11.55;;;;;;;9.22;86.07;101781.47;7387879;19;20003;-81
2022/03/02 09:33:58;;;;;;;22.67;9.68;;;;;;;9.20;85.07;101778.97;7386466;19;20007;-82
2022/03/02 09:36:26;;;;;;;20.95;9.00;;;;;;;9.24;84.85;101775.16;7385030;19;20062;-83
2022/03/02 09:38:56;;;;;;;18.50;8.55;;;;;;;9.24;84.78;101775.16;7388166;19;20028;-83
2022/03/02 09:41:34;;;;;;;19.10;8.13;;;;;;;9.20;84.60;101778.13;7384608;19;20027;-82
2022/03/02 09:44:05;;;;;;;18.27;9.20;;;;;;;9.22;85.21;101776.22;7386057;19;20683;-81
2022/03/02 09:46:32;;;;;;;19.88;7.65;;;;;;;9.26;84.04;101775.03;7384611;19;20013;-82
2022/03/02 09:49:05;;;;;;;20.00;8.73;;;;;;;9.24;85.26;101772.53;7384901;19;20023;-82
2022/03/02 09:51:38;;;;;;;21.38;7.97;;;;;;;9.19;85.63;101777.31;7382936;19;20451;-83
2022/03/02 09:54:14;;;;;;;21.65;8.45;;;;;;;9.19;85.84;101779.09;7385010;19;20481;-81
2022/03/02 09:56:41;;;;;;;16.80;8.40;;;;;;;9.18;86.05;101769.56;7385869;19;20014;-83
2022/03/02 09:59:13;;;;;;;20.08;9.13;;;;;;;9.15;86.70;101769.78;7385898;19;20019;-83
2022/03/02 10:01:42;;;;;;;17.10;7.93;;;;;;;9.18;86.71;101769.56;7364800;19;20034;-81
2022/03/02 10:04:22;;;;;;;21.00;8.43;;;;;;;9.17;86.85;101760.00;7381012;19;20363;-82
2022/03/02 10:07:26;;;;;;;17.23;7.70;;;;;;;9.16;86.73;101768.84;7386860;19;20476;-83
2022/03/02 10:09:47;;;;;;;17.70;7.43;;;;;;;9.14;86.68;101765.50;7389456;19;20439;-82
2022/03/02 10:12:15;;;;;;;19.10;8.32;;;;;;;9.16;87.10;101759.16;7390969;19;20202;-82
2022/03/02 10:14:43;;;;;;;17.75;8.27;;;;;;;9.16;87.08;101766.19;7394091;19;20014;-82
2022/03/02 10:17:19;;;;;;;20.65;8.80;;;;;;;9.18;86.84;101765.16;7388778;19;20014;-83
2022/03/02 10:19:56;;;;;;;18.48;8.23;;;;;;;9.17;86.73;101767.88;7393688;19;20082;-83
2022/03/02 10:22:33;;;;;;;17.85;7.95;;;;;;;9.19;86.08;101769.44;7396576;19;20014;-83
2022/03/02 10:25:26;;;;;;;17.10;8.15;;;;;;;9.23;85.62;101764.78;7392242;19;20498;-84
2022/03/02 10:28:00;;;;;;;16.58;7.68;;;;;;;9.20;84.19;101765.84;7392714;19;20011;-82
2022/03/02 10:30:36;;;;;;;19.33;7.82;;;;;;;9.18;85.13;101769.56;7397434;19;20018;-82
2022/03/02 10:33:25;;;;;;;18.52;8.50;;;;;;;9.15;86.46;101773.25;7393987;19;20018;-82
2022/03/02 10:36:00;;;;;;;17.02;8.27;;;;;;;9.14;86.22;101773.38;7388693;19;20479;-83
2022/03/02 10:38:39;;;;;;;19.27;8.98;;;;;;;9.07;86.27;101767.78;7395423;19;20335;-83
2022/03/02 10:41:10;;;;;;;16.58;8.45;;;;;;;9.13;86.14;101776.97;7388975;19;20018;-82
2022/03/02 10:43:56;;;;;;;16.95;7.65;;;;;;;9.15;86.00;101777.66;7389779;19;20027;-83
2022/03/02 10:46:27;;;;;;;18.48;9.02;;;;;;;9.20;88.12;101775.50;7390082;19;20074;-82
2022/03/02 10:49:06;;;;;;;16.70;7.68;;;;;;;9.23;87.15;101777.91;7390982;19;20037;-83
2022/03/02 10:51:38;;;;;;;24.02;9.88;;;;;;;9.24;87.32;101769.91;7392090;19;20025;-84
2022/03/02 10:54:21;;;;;;;22.50;9.73;;;;;;;9.23;87.10;101768.25;7391683;19;20131;-83
2022/03/02 10:56:54;;;;;;;17.63;9.07;;;;;;;9.23;86.79;101764.78;7391027;19;20013;-83
2022/03/02 10:59:25;;;;;;;20.63;8.20;;;;;;;9.21;87.13;101766.69;7391300;19;20015;-81
2022/03/02 11:01:53;;;;;;;19.02;8.50;;;;;;;9.25;88.07;101762.84;7390218;19;20015;-89
2022/03/02 11:04:22;;;;;;;17.35;8.23;;;;;;;9.30;87.46;101771.19;7388981;19;20078;-78
2022/03/02 11:06:53;;;;;;;17.58;8.32;;;;;;;9.36;86.62;101765.47;7392488;19;20011;-80
2022/03/02 11:09:48;;;;;;;19.60;8.93;;;;;;;9.39;86.03;101760.00;7394942;19;20325;-82
2022/03/02 11:12:18;;;;;;;16.55;8.15;;;;;;;9.37;85.79;101764.50;7389507;19;20011;-82
2022/03/02 11:15:00;;;;;;;16.10;7.57;;;;;;;9.43;85.72;101758.78;7392208;19;20010;-81
2022/03/02 11:17:28;;;;;;;20.15;9.45;;;;;;;9.46;85.77;101753.28;7390496;19;20026;-82
2022/03/02 11:19:56;;;;;;;16.88;8.35;;;;;;;9.54;85.50;101758.75;7391120;19;20022;-81
2022/03/02 11:22:27;;;;;;;17.15;8.13;;;;;;;9.50;84.93;101767.00;7392389;19;20070;-82
2022/03/02 11:24:58;;;;;;;16.25;8.07;;;;;;;9.54;85.35;101756.13;7393304;19;20083;-83
2022/03/02 11:27:40;;;;;;;21.63;9.48;;;;;;;9.57;85.35;101750.63;7391227;19;20007;-82
2022/03/02 11:30:11;;;;;;;16.63;7.22;;;;;;;9.61;85.08;101753.81;7385336;19;20018;-81
2022/03/02 11:32:41;;;;;;;17.77;8.35;;;;;;;9.58;85.07;101747.03;7381496;19;20030;-80